sensor_id;sensor_type;location;lat;lon;timestamp;pressure;altitude;pressure_sealevel;temperature;humidity
40245;BME280;25963;42.694;23.600;2022-08-19T00:01:27;94929.72;;;25.34;48.11
40245;BME280;25963;42.694;23.600;2022-08-19T00:03:58;94924.78;;;25.36;48.11
40245;BME280;25963;42.694;23.600;2022-08-19T00:06:23;94922.25;;;25.48;47.73
40245;BME280;25963;42.694;23.600;2022-08-19T00:08:50;94926.22;;;25.42;47.59
40245;BME280;25963;42.694;23.600;2022-08-19T00:11:17;94924.75;;;25.27;47.69
40245;BME280;25963;42.694;23.600;2022-08-19T00:13:43;94927.47;;;25.45;47.91
40245;BME280;25963;42.694;23.600;2022-08-19T00:16:11;94926.53;;;25.67;47.19
40245;BME280;25963;42.694;23.600;2022-08-19T00:18:36;94926.69;;;25.70;48.17
40245;BME280;25963;42.694;23.600;2022-08-19T00:21:03;94930.97;;;25.63;47.54
40245;BME280;25963;42.694;23.600;2022-08-19T00:23:34;94929.56;;;25.65;47.43
40245;BME280;25963;42.694;23.600;2022-08-19T00:26:03;94918.75;;;25.57;47.30
40245;BME280;25963;42.694;23.600;2022-08-19T00:28:28;94924.16;;;25.48;47.47
40245;BME280;25963;42.694;23.600;2022-08-19T00:30:54;94919.06;;;25.38;47.51
40245;BME280;25963;42.694;23.600;2022-08-19T00:33:21;94927.47;;;25.36;47.45
40245;BME280;25963;42.694;23.600;2022-08-19T00:35:47;94937.19;;;25.37;47.89
40245;BME280;25963;42.694;23.600;2022-08-19T00:38:12;94935.97;;;25.03;48.43
40245;BME280;25963;42.694;23.600;2022-08-19T00:40:38;94937.66;;;25.22;48.14
40245;BME280;25963;42.694;23.600;2022-08-19T00:43:11;94943.88;;;24.91;48.78
40245;BME280;25963;42.694;23.600;2022-08-19T00:45:40;94945.16;;;24.94;49.07
40245;BME280;25963;42.694;23.600;2022-08-19T00:48:08;94944.38;;;24.93;49.15
40245;BME280;25963;42.694;23.600;2022-08-19T00:50:34;94941.41;;;24.64;50.09
40245;BME280;25963;42.694;23.600;2022-08-19T00:53:00;94948.09;;;24.66;50.06
40245;BME280;25963;42.694;23.600;2022-08-19T00:55:30;94946.75;;;24.55;50.43
40245;BME280;25963;42.694;23.600;2022-08-19T00:58:01;94944.81;;;24.15;51.75
40245;BME280;25963;42.694;23.600;2022-08-19T01:00:30;94942.66;;;24.35;51.31
40245;BME280;25963;42.694;23.600;2022-08-19T01:02:56;94928.78;;;24.81;51.04
40245;BME280;25963;42.694;23.600;2022-08-19T01:05:27;94929.63;;;24.99;51.61
40245;BME280;25963;42.694;23.600;2022-08-19T01:07:56;94929.94;;;25.06;51.17
40245;BME280;25963;42.694;23.600;2022-08-19T01:10:25;94932.69;;;25.24;51.27
40245;BME280;25963;42.694;23.600;2022-08-19T01:12:52;94935.19;;;25.12;50.16
40245;BME280;25963;42.694;23.600;2022-08-19T01:15:23;94935.03;;;25.08;50.44
40245;BME280;25963;42.694;23.600;2022-08-19T01:17:51;94935.59;;;24.79;50.26
40245;BME280;25963;42.694;23.600;2022-08-19T01:20:20;94931.19;;;24.83;49.73
40245;BME280;25963;42.694;23.600;2022-08-19T01:22:58;94933.06;;;24.82;49.59
40245;BME280;25963;42.694;23.600;2022-08-19T01:25:30;94927.03;;;24.86;49.36
40245;BME280;25963;42.694;23.600;2022-08-19T01:27:57;94929.00;;;25.02;49.54
40245;BME280;25963;42.694;23.600;2022-08-19T01:30:33;94933.47;;;25.16;50.19
40245;BME280;25963;42.694;23.600;2022-08-19T01:33:00;94935.66;;;24.96;49.71
40245;BME280;25963;42.694;23.600;2022-08-19T01:35:28;94932.75;;;24.84;50.22
40245;BME280;25963;42.694;23.600;2022-08-19T01:38:03;94936.00;;;24.64;50.12
40245;BME280;25963;42.694;23.600;2022-08-19T01:40:35;94928.25;;;24.71;50.64
40245;BME280;25963;42.694;23.600;2022-08-19T01:43:02;94932.50;;;24.32;51.42
40245;BME280;25963;42.694;23.600;2022-08-19T01:45:31;94936.97;;;23.83;52.69
40245;BME280;25963;42.694;23.600;2022-08-19T01:47:59;94932.94;;;23.94;53.22
40245;BME280;25963;42.694;23.600;2022-08-19T01:50:25;94929.53;;;23.66;53.09
40245;BME280;25963;42.694;23.600;2022-08-19T01:52:51;94933.34;;;23.65;52.92
40245;BME280;25963;42.694;23.600;2022-08-19T01:55:20;94939.13;;;23.95;52.23
40245;BME280;25963;42.694;23.600;2022-08-19T01:57:50;94938.59;;;23.47;53.82
40245;BME280;25963;42.694;23.600;2022-08-19T02:00:20;94932.47;;;23.69;52.96
40245;BME280;25963;42.694;23.600;2022-08-19T02:02:46;94927.19;;;23.87;53.00
40245;BME280;25963;42.694;23.600;2022-08-19T02:05:12;94922.91;;;24.08;52.09
40245;BME280;25963;42.694;23.600;2022-08-19T02:07:39;94934.38;;;24.23;51.24
40245;BME280;25963;42.694;23.600;2022-08-19T02:10:12;94931.88;;;24.26;51.44
40245;BME280;25963;42.694;23.600;2022-08-19T02:12:40;94938.41;;;24.34;51.31
40245;BME280;25963;42.694;23.600;2022-08-19T02:15:06;94929.78;;;24.23;51.38
40245;BME280;25963;42.694;23.600;2022-08-19T02:17:33;94934.00;;;24.38;50.88
40245;BME280;25963;42.694;23.600;2022-08-19T02:19:59;94942.66;;;24.35;50.99
40245;BME280;25963;42.694;23.600;2022-08-19T02:22:25;94934.47;;;24.09;51.32
40245;BME280;25963;42.694;23.600;2022-08-19T02:24:52;94942.22;;;24.33;51.03
40245;BME280;25963;42.694;23.600;2022-08-19T02:27:19;94941.66;;;24.22;51.78
40245;BME280;25963;42.694;23.600;2022-08-19T02:29:49;94942.59;;;24.18;51.45
40245;BME280;25963;42.694;23.600;2022-08-19T02:32:15;94943.72;;;23.94;51.94
40245;BME280;25963;42.694;23.600;2022-08-19T02:34:42;94952.19;;;23.65;52.75
40245;BME280;25963;42.694;23.600;2022-08-19T02:37:07;94945.38;;;23.81;52.48
40245;BME280;25963;42.694;23.600;2022-08-19T02:39:56;94952.31;;;23.96;52.20
40245;BME280;25963;42.694;23.600;2022-08-19T02:42:23;94952.31;;;23.96;52.89
40245;BME280;25963;42.694;23.600;2022-08-19T02:44:48;94940.47;;;24.06;51.72
40245;BME280;25963;42.694;23.600;2022-08-19T02:47:14;94941.75;;;23.86;52.12
40245;BME280;25963;42.694;23.600;2022-08-19T02:49:40;94951.69;;;23.77;52.01
40245;BME280;25963;42.694;23.600;2022-08-19T02:52:06;94947.59;;;23.65;52.52
40245;BME280;25963;42.694;23.600;2022-08-19T02:54:33;94950.47;;;23.33;54.14
40245;BME280;25963;42.694;23.600;2022-08-19T02:56:58;94950.22;;;23.57;53.31
40245;BME280;25963;42.694;23.600;2022-08-19T02:59:24;94949.00;;;23.63;53.30
40245;BME280;25963;42.694;23.600;2022-08-19T03:01:52;94954.59;;;23.66;53.66
40245;BME280;25963;42.694;23.600;2022-08-19T03:04:17;94957.56;;;23.65;53.63
40245;BME280;25963;42.694;23.600;2022-08-19T03:06:47;94952.53;;;23.50;53.82
40245;BME280;25963;42.694;23.600;2022-08-19T03:09:13;94950.22;;;23.71;53.49
40245;BME280;25963;42.694;23.600;2022-08-19T03:11:39;94950.78;;;23.67;53.38
40245;BME280;25963;42.694;23.600;2022-08-19T03:14:08;94945.78;;;23.38;53.88
40245;BME280;25963;42.694;23.600;2022-08-19T03:16:39;94940.72;;;23.37;54.00
40245;BME280;25963;42.694;23.600;2022-08-19T03:19:06;94953.66;;;23.49;54.25
40245;BME280;25963;42.694;23.600;2022-08-19T03:21:33;94944.22;;;23.23;55.54
40245;BME280;25963;42.694;23.600;2022-08-19T03:24:05;94952.84;;;23.48;55.19
40245;BME280;25963;42.694;23.600;2022-08-19T03:26:31;94950.56;;;23.78;54.00
40245;BME280;25963;42.694;23.600;2022-08-19T03:29:02;94953.84;;;23.52;53.19
40245;BME280;25963;42.694;23.600;2022-08-19T03:31:28;94953.50;;;23.17;54.32
40245;BME280;25963;42.694;23.600;2022-08-19T03:33:55;94956.28;;;23.26;54.00
40245;BME280;25963;42.694;23.600;2022-08-19T03:36:23;94955.63;;;23.07;55.27
40245;BME280;25963;42.694;23.600;2022-08-19T03:38:52;94947.34;;;23.03;55.07
40245;BME280;25963;42.694;23.600;2022-08-19T03:41:26;94953.31;;;23.14;54.99
40245;BME280;25963;42.694;23.600;2022-08-19T03:43:54;94952.81;;;22.84;56.21
40245;BME280;25963;42.694;23.600;2022-08-19T03:46:26;94966.09;;;23.08;55.70
40245;BME280;25963;42.694;23.600;2022-08-19T03:48:53;94962.69;;;23.16;55.13
40245;BME280;25963;42.694;23.600;2022-08-19T03:51:27;94961.84;;;23.30;54.94
40245;BME280;25963;42.694;23.600;2022-08-19T03:53:54;94963.41;;;23.44;54.72
40245;BME280;25963;42.694;23.600;2022-08-19T03:56:21;94965.47;;;23.25;54.84
40245;BME280;25963;42.694;23.600;2022-08-19T03:58:51;94975.59;;;23.42;55.12
40245;BME280;25963;42.694;23.600;2022-08-19T04:01:18;94980.03;;;23.60;54.00
40245;BME280;25963;42.694;23.600;2022-08-19T04:03:45;94981.44;;;23.58;53.60
40245;BME280;25963;42.694;23.600;2022-08-19T04:06:29;94981.97;;;23.46;53.87
40245;BME280;25963;42.694;23.600;2022-08-19T04:08:59;94976.94;;;23.53;53.66
40245;BME280;25963;42.694;23.600;2022-08-19T04:11:33;94981.38;;;23.49;53.83
40245;BME280;25963;42.694;23.600;2022-08-19T04:13:59;94977.97;;;23.43;54.23
40245;BME280;25963;42.694;23.600;2022-08-19T04:16:26;94979.19;;;23.37;54.24
40245;BME280;25963;42.694;23.600;2022-08-19T04:18:56;94984.06;;;23.85;53.78
40245;BME280;25963;42.694;23.600;2022-08-19T04:21:26;94994.03;;;23.85;53.81
40245;BME280;25963;42.694;23.600;2022-08-19T04:23:56;94997.59;;;23.94;53.11
40245;BME280;25963;42.694;23.600;2022-08-19T04:26:29;95000.41;;;24.11;53.57
40245;BME280;25963;42.694;23.600;2022-08-19T04:28:59;94997.28;;;24.18;53.22
40245;BME280;25963;42.694;23.600;2022-08-19T04:31:27;94997.97;;;24.01;53.23
40245;BME280;25963;42.694;23.600;2022-08-19T04:33:56;94999.88;;;24.32;53.13
40245;BME280;25963;42.694;23.600;2022-08-19T04:36:31;95000.44;;;24.65;51.75
40245;BME280;25963;42.694;23.600;2022-08-19T04:39:00;94994.75;;;24.75;51.32
40245;BME280;25963;42.694;23.600;2022-08-19T04:41:27;94995.28;;;24.86;51.25
40245;BME280;25963;42.694;23.600;2022-08-19T04:44:11;94986.84;;;25.27;49.99
40245;BME280;25963;42.694;23.600;2022-08-19T04:46:37;94982.44;;;26.27;47.54
40245;BME280;25963;42.694;23.600;2022-08-19T04:49:04;94965.03;;;27.31;44.80
40245;BME280;25963;42.694;23.600;2022-08-19T04:51:31;94976.13;;;28.43;42.33
40245;BME280;25963;42.694;23.600;2022-08-19T04:53:58;94964.19;;;29.54;39.79
40245;BME280;25963;42.694;23.600;2022-08-19T04:56:25;94961.66;;;30.58;37.94
40245;BME280;25963;42.694;23.600;2022-08-19T04:58:52;94964.47;;;31.41;36.53
40245;BME280;25963;42.694;23.600;2022-08-19T05:01:21;94965.13;;;31.89;35.47
40245;BME280;25963;42.694;23.600;2022-08-19T05:03:47;94965.19;;;32.51;34.51
40245;BME280;25963;42.694;23.600;2022-08-19T05:06:15;94968.28;;;33.18;33.25
40245;BME280;25963;42.694;23.600;2022-08-19T05:08:41;94973.22;;;33.62;31.57
40245;BME280;25963;42.694;23.600;2022-08-19T05:11:20;94969.31;;;34.20;30.96
40245;BME280;25963;42.694;23.600;2022-08-19T05:13:47;94977.75;;;34.79;29.17
40245;BME280;25963;42.694;23.600;2022-08-19T05:16:14;94975.91;;;35.38;28.52
40245;BME280;25963;42.694;23.600;2022-08-19T05:18:41;94973.06;;;35.79;29.03
40245;BME280;25963;42.694;23.600;2022-08-19T05:21:26;94972.72;;;35.92;28.62
40245;BME280;25963;42.694;23.600;2022-08-19T05:24:11;94979.53;;;36.19;26.49
40245;BME280;25963;42.694;23.600;2022-08-19T05:26:45;94979.63;;;36.44;27.30
40245;BME280;25963;42.694;23.600;2022-08-19T05:29:13;94984.38;;;36.62;26.58
40245;BME280;25963;42.694;23.600;2022-08-19T05:31:39;94984.84;;;36.89;26.85
40245;BME280;25963;42.694;23.600;2022-08-19T05:34:05;94988.78;;;37.09;26.44
40245;BME280;25963;42.694;23.600;2022-08-19T05:36:37;94989.56;;;37.35;25.32
40245;BME280;25963;42.694;23.600;2022-08-19T05:39:05;94982.09;;;37.39;24.81
40245;BME280;25963;42.694;23.600;2022-08-19T05:41:31;94982.91;;;37.11;24.60
40245;BME280;25963;42.694;23.600;2022-08-19T05:43:58;94986.44;;;37.08;24.65
40245;BME280;25963;42.694;23.600;2022-08-19T05:46:26;94982.88;;;37.21;26.05
40245;BME280;25963;42.694;23.600;2022-08-19T05:48:55;94980.50;;;37.45;24.59
40245;BME280;25963;42.694;23.600;2022-08-19T05:51:25;94984.06;;;37.42;24.87
40245;BME280;25963;42.694;23.600;2022-08-19T05:53:51;94988.00;;;37.01;25.73
40245;BME280;25963;42.694;23.600;2022-08-19T05:56:17;94989.16;;;37.36;23.75
40245;BME280;25963;42.694;23.600;2022-08-19T05:58:44;94994.69;;;37.26;24.13
40245;BME280;25963;42.694;23.600;2022-08-19T06:01:16;94995.84;;;37.46;24.44
40245;BME280;25963;42.694;23.600;2022-08-19T06:03:42;94991.91;;;37.68;24.29
40245;BME280;25963;42.694;23.600;2022-08-19T06:06:09;94991.47;;;37.91;23.80
40245;BME280;25963;42.694;23.600;2022-08-19T06:08:36;94997.78;;;37.78;23.54
40245;BME280;25963;42.694;23.600;2022-08-19T06:11:19;94995.47;;;37.22;25.20
40245;BME280;25963;42.694;23.600;2022-08-19T06:13:47;94997.03;;;37.09;25.35
40245;BME280;25963;42.694;23.600;2022-08-19T06:16:16;94994.69;;;37.22;25.19
40245;BME280;25963;42.694;23.600;2022-08-19T06:18:54;94991.88;;;36.97;25.87
40245;BME280;25963;42.694;23.600;2022-08-19T06:21:21;95003.16;;;36.45;25.92
40245;BME280;25963;42.694;23.600;2022-08-19T06:23:47;95005.06;;;36.23;26.53
40245;BME280;25963;42.694;23.600;2022-08-19T06:26:15;95000.69;;;36.08;26.65
40245;BME280;25963;42.694;23.600;2022-08-19T06:28:40;95010.78;;;35.97;26.81
40245;BME280;25963;42.694;23.600;2022-08-19T06:31:18;95005.41;;;36.11;25.67
40245;BME280;25963;42.694;23.600;2022-08-19T06:33:45;95001.94;;;36.32;26.70
40245;BME280;25963;42.694;23.600;2022-08-19T06:38:46;94998.44;;;36.46;25.75
40245;BME280;25963;42.694;23.600;2022-08-19T06:41:11;94999.75;;;36.81;25.76
40245;BME280;25963;42.694;23.600;2022-08-19T06:43:37;94997.38;;;36.79;26.61
40245;BME280;25963;42.694;23.600;2022-08-19T06:46:03;94999.66;;;36.52;26.00
40245;BME280;25963;42.694;23.600;2022-08-19T06:48:29;94998.97;;;36.84;25.97
40245;BME280;25963;42.694;23.600;2022-08-19T06:50:55;94996.22;;;36.84;26.29
40245;BME280;25963;42.694;23.600;2022-08-19T06:53:21;94992.28;;;36.77;25.45
40245;BME280;25963;42.694;23.600;2022-08-19T06:55:48;94999.38;;;37.00;25.84
40245;BME280;25963;42.694;23.600;2022-08-19T06:58:28;94991.47;;;36.59;25.55
40245;BME280;25963;42.694;23.600;2022-08-19T07:01:01;94997.16;;;36.11;25.70
40245;BME280;25963;42.694;23.600;2022-08-19T07:03:31;95005.50;;;36.40;25.19
40245;BME280;25963;42.694;23.600;2022-08-19T07:06:09;95002.28;;;36.20;26.20
40245;BME280;25963;42.694;23.600;2022-08-19T07:08:38;94995.28;;;36.44;26.92
40245;BME280;25963;42.694;23.600;2022-08-19T07:11:09;95001.72;;;36.84;25.76
40245;BME280;25963;42.694;23.600;2022-08-19T07:13:35;94997.38;;;36.75;25.44
40245;BME280;25963;42.694;23.600;2022-08-19T07:16:07;94991.47;;;36.70;25.28
40245;BME280;25963;42.694;23.600;2022-08-19T07:18:34;94993.28;;;36.26;25.87
40245;BME280;25963;42.694;23.600;2022-08-19T07:21:08;94995.78;;;36.60;27.13
40245;BME280;25963;42.694;23.600;2022-08-19T07:23:35;94987.03;;;36.37;26.40
40245;BME280;25963;42.694;23.600;2022-08-19T07:26:30;94993.56;;;36.00;25.54
40245;BME280;25963;42.694;23.600;2022-08-19T07:28:56;94993.84;;;36.93;27.04
40245;BME280;25963;42.694;23.600;2022-08-19T07:31:27;94997.38;;;36.68;26.67
40245;BME280;25963;42.694;23.600;2022-08-19T07:33:54;94996.00;;;36.19;26.15
40245;BME280;25963;42.694;23.600;2022-08-19T07:36:25;94996.22;;;36.84;24.71
40245;BME280;25963;42.694;23.600;2022-08-19T07:38:55;94992.28;;;36.77;25.13
40245;BME280;25963;42.694;23.600;2022-08-19T07:41:24;94985.63;;;36.96;26.96
40245;BME280;25963;42.694;23.600;2022-08-19T07:43:50;94980.94;;;37.11;26.33
40245;BME280;25963;42.694;23.600;2022-08-19T07:46:17;94988.00;;;37.27;24.26
40245;BME280;25963;42.694;23.600;2022-08-19T07:48:47;94980.16;;;37.29;24.04
40245;BME280;25963;42.694;23.600;2022-08-19T07:51:15;94980.94;;;37.26;25.15
40245;BME280;25963;42.694;23.600;2022-08-19T07:53:42;94984.44;;;37.44;24.85
40245;BME280;25963;42.694;23.600;2022-08-19T07:56:11;94989.13;;;37.83;24.53
40245;BME280;25963;42.694;23.600;2022-08-19T07:58:40;94978.13;;;37.76;24.10
40245;BME280;25963;42.694;23.600;2022-08-19T08:01:08;94986.03;;;37.56;23.70
40245;BME280;25963;42.694;23.600;2022-08-19T08:03:36;94980.94;;;37.40;24.46
40245;BME280;25963;42.694;23.600;2022-08-19T08:06:21;94978.19;;;37.11;24.05
40245;BME280;25963;42.694;23.600;2022-08-19T08:09:05;94984.03;;;37.71;25.51
40245;BME280;25963;42.694;23.600;2022-08-19T08:11:45;94973.03;;;37.63;23.57
40245;BME280;25963;42.694;23.600;2022-08-19T08:14:22;94980.53;;;37.52;24.23
40245;BME280;25963;42.694;23.600;2022-08-19T08:16:49;94988.34;;;37.75;25.24
40245;BME280;25963;42.694;23.600;2022-08-19T08:19:18;94969.50;;;37.59;24.92
40245;BME280;25963;42.694;23.600;2022-08-19T08:21:45;94974.75;;;38.38;24.85
40245;BME280;25963;42.694;23.600;2022-08-19T08:24:11;94978.34;;;38.28;24.87
40245;BME280;25963;42.694;23.600;2022-08-19T08:26:38;94980.88;;;38.78;24.73
40245;BME280;25963;42.694;23.600;2022-08-19T08:29:03;94967.13;;;38.67;23.33
40245;BME280;25963;42.694;23.600;2022-08-19T08:31:29;94970.72;;;38.64;24.62
40245;BME280;25963;42.694;23.600;2022-08-19T08:33:55;94969.56;;;39.17;24.36
40245;BME280;25963;42.694;23.600;2022-08-19T08:36:20;94969.31;;;39.46;23.88
40245;BME280;25963;42.694;23.600;2022-08-19T08:38:46;94961.47;;;39.44;23.42
40245;BME280;25963;42.694;23.600;2022-08-19T08:43:58;94961.97;;;38.76;23.28
40245;BME280;25963;42.694;23.600;2022-08-19T08:46:37;94966.06;;;39.13;22.58
40245;BME280;25963;42.694;23.600;2022-08-19T08:49:43;94954.09;;;39.27;21.01
40245;BME280;25963;42.694;23.600;2022-08-19T08:52:32;94955.22;;;39.37;23.95
40245;BME280;25963;42.694;23.600;2022-08-19T08:55:07;94948.78;;;39.51;22.29
40245;BME280;25963;42.694;23.600;2022-08-19T08:57:38;94946.41;;;39.53;21.12
40245;BME280;25963;42.694;23.600;2022-08-19T09:00:10;94941.41;;;40.12;21.92
40245;BME280;25963;42.694;23.600;2022-08-19T09:02:39;94942.63;;;40.42;22.33
40245;BME280;25963;42.694;23.600;2022-08-19T09:05:05;94937.81;;;40.19;20.93
40245;BME280;25963;42.694;23.600;2022-08-19T09:07:53;94937.69;;;40.57;20.73
40245;BME280;25963;42.694;23.600;2022-08-19T09:10:34;94935.38;;;40.52;20.50
40245;BME280;25963;42.694;23.600;2022-08-19T09:16:17;94929.66;;;40.39;20.97
40245;BME280;25963;42.694;23.600;2022-08-19T09:18:49;94923.72;;;40.68;21.13
40245;BME280;25963;42.694;23.600;2022-08-19T09:21:18;94915.69;;;40.77;18.91
40245;BME280;25963;42.694;23.600;2022-08-19T09:23:47;94915.78;;;40.70;20.19
40245;BME280;25963;42.694;23.600;2022-08-19T09:26:15;94916.63;;;40.67;18.16
40245;BME280;25963;42.694;23.600;2022-08-19T09:28:42;94913.50;;;40.65;22.09
40245;BME280;25963;42.694;23.600;2022-08-19T09:31:10;94916.50;;;41.24;20.18
40245;BME280;25963;42.694;23.600;2022-08-19T09:33:36;94910.28;;;40.70;21.04
40245;BME280;25963;42.694;23.600;2022-08-19T09:36:06;94910.38;;;40.32;21.85
40245;BME280;25963;42.694;23.600;2022-08-19T09:38:34;94907.69;;;40.82;19.66
40245;BME280;25963;42.694;23.600;2022-08-19T09:41:10;94903.56;;;40.94;20.71
40245;BME280;25963;42.694;23.600;2022-08-19T09:43:37;94904.59;;;41.27;19.73
40245;BME280;25963;42.694;23.600;2022-08-19T09:46:04;94905.44;;;41.68;21.03
40245;BME280;25963;42.694;23.600;2022-08-19T09:48:35;94894.25;;;41.32;19.58
40245;BME280;25963;42.694;23.600;2022-08-19T09:51:03;94893.59;;;42.07;20.44
40245;BME280;25963;42.694;23.600;2022-08-19T09:53:31;94890.75;;;41.91;19.10
40245;BME280;25963;42.694;23.600;2022-08-19T09:55:56;94891.25;;;41.86;19.02
40245;BME280;25963;42.694;23.600;2022-08-19T09:58:22;94903.47;;;41.68;18.60
40245;BME280;25963;42.694;23.600;2022-08-19T10:00:53;94889.75;;;41.61;18.96
40245;BME280;25963;42.694;23.600;2022-08-19T10:03:19;94891.19;;;41.26;18.00
40245;BME280;25963;42.694;23.600;2022-08-19T10:05:44;94881.81;;;41.63;18.54
40245;BME280;25963;42.694;23.600;2022-08-19T10:08:13;94876.25;;;41.63;18.70
40245;BME280;25963;42.694;23.600;2022-08-19T10:10:38;94875.19;;;42.17;18.87
40245;BME280;25963;42.694;23.600;2022-08-19T10:13:04;94865.34;;;42.32;18.53
40245;BME280;25963;42.694;23.600;2022-08-19T10:15:29;94875.69;;;41.52;18.49
40245;BME280;25963;42.694;23.600;2022-08-19T10:17:55;94879.31;;;41.49;17.92
40245;BME280;25963;42.694;23.600;2022-08-19T10:20:20;94873.63;;;41.13;17.70
40245;BME280;25963;42.694;23.600;2022-08-19T10:22:47;94867.44;;;41.28;18.86
40245;BME280;25963;42.694;23.600;2022-08-19T10:25:13;94871.63;;;40.66;18.60
40245;BME280;25963;42.694;23.600;2022-08-19T10:27:43;94867.41;;;41.92;19.89
40245;BME280;25963;42.694;23.600;2022-08-19T10:30:10;94865.06;;;41.90;18.50
40245;BME280;25963;42.694;23.600;2022-08-19T10:32:36;94854.81;;;42.07;18.26
40245;BME280;25963;42.694;23.600;2022-08-19T10:35:03;94854.06;;;41.47;19.61
40245;BME280;25963;42.694;23.600;2022-08-19T10:37:34;94861.50;;;41.90;18.18
40245;BME280;25963;42.694;23.600;2022-08-19T10:40:00;94852.97;;;41.61;17.17
40245;BME280;25963;42.694;23.600;2022-08-19T10:42:28;94851.84;;;41.98;17.63
40245;BME280;25963;42.694;23.600;2022-08-19T10:44:56;94851.06;;;41.98;17.79
40245;BME280;25963;42.694;23.600;2022-08-19T10:47:23;94846.53;;;42.24;19.30
40245;BME280;25963;42.694;23.600;2022-08-19T10:49:49;94860.53;;;42.36;17.59
40245;BME280;25963;42.694;23.600;2022-08-19T10:52:33;94852.47;;;42.58;17.24
40245;BME280;25963;42.694;23.600;2022-08-19T10:55:01;94856.53;;;42.37;17.06
40245;BME280;25963;42.694;23.600;2022-08-19T10:57:45;94850.22;;;42.70;17.01
40245;BME280;25963;42.694;23.600;2022-08-19T11:00:11;94844.00;;;42.82;18.13
40245;BME280;25963;42.694;23.600;2022-08-19T11:02:38;94832.75;;;42.73;16.97
40245;BME280;25963;42.694;23.600;2022-08-19T11:05:04;94836.03;;;42.84;16.40
40245;BME280;25963;42.694;23.600;2022-08-19T11:07:32;94834.09;;;42.97;16.76
40245;BME280;25963;42.694;23.600;2022-08-19T11:09:57;94839.59;;;42.84;16.46
40245;BME280;25963;42.694;23.600;2022-08-19T11:12:23;94840.53;;;42.09;17.33
40245;BME280;25963;42.694;23.600;2022-08-19T11:14:49;94843.72;;;42.07;17.02
40245;BME280;25963;42.694;23.600;2022-08-19T11:17:15;94843.97;;;41.13;17.31
40245;BME280;25963;42.694;23.600;2022-08-19T11:19:41;94832.13;;;41.56;17.56
40245;BME280;25963;42.694;23.600;2022-08-19T11:22:08;94838.78;;;41.79;19.10
40245;BME280;25963;42.694;23.600;2022-08-19T11:24:35;94832.63;;;41.71;18.03
40245;BME280;25963;42.694;23.600;2022-08-19T11:27:07;94824.63;;;40.90;17.41
40245;BME280;25963;42.694;23.600;2022-08-19T11:29:35;94821.97;;;41.49;17.82
40245;BME280;25963;42.694;23.600;2022-08-19T11:32:06;94822.53;;;42.17;18.08
40245;BME280;25963;42.694;23.600;2022-08-19T11:34:31;94820.53;;;42.17;18.29
40245;BME280;25963;42.694;23.600;2022-08-19T11:36:58;94820.34;;;41.92;17.58
40245;BME280;25963;42.694;23.600;2022-08-19T11:39:27;94816.25;;;41.37;18.85
40245;BME280;25963;42.694;23.600;2022-08-19T11:41:53;94807.66;;;41.91;19.66
40245;BME280;25963;42.694;23.600;2022-08-19T11:44:18;94815.22;;;41.70;19.37
40245;BME280;25963;42.694;23.600;2022-08-19T11:46:45;94806.34;;;41.59;18.08
40245;BME280;25963;42.694;23.600;2022-08-19T11:49:13;94803.22;;;42.13;18.31
40245;BME280;25963;42.694;23.600;2022-08-19T11:51:39;94801.59;;;42.16;17.91
40245;BME280;25963;42.694;23.600;2022-08-19T11:54:07;94799.81;;;41.69;18.17
40245;BME280;25963;42.694;23.600;2022-08-19T11:56:33;94796.34;;;42.38;18.26
40245;BME280;25963;42.694;23.600;2022-08-19T11:59:00;94789.75;;;42.32;17.33
40245;BME280;25963;42.694;23.600;2022-08-19T12:01:26;94785.78;;;42.49;17.82
40245;BME280;25963;42.694;23.600;2022-08-19T12:03:53;94789.94;;;41.68;17.02
40245;BME280;25963;42.694;23.600;2022-08-19T12:06:23;94787.72;;;42.16;18.62
40245;BME280;25963;42.694;23.600;2022-08-19T12:08:51;94779.69;;;42.71;18.95
40245;BME280;25963;42.694;23.600;2022-08-19T12:11:19;94793.53;;;42.87;17.57
40245;BME280;25963;42.694;23.600;2022-08-19T12:13:45;94785.22;;;42.71;17.08
40245;BME280;25963;42.694;23.600;2022-08-19T12:16:19;94771.34;;;42.87;17.41
40245;BME280;25963;42.694;23.600;2022-08-19T12:18:46;94775.72;;;42.72;16.47
40245;BME280;25963;42.694;23.600;2022-08-19T12:21:15;94761.50;;;42.53;16.57
40245;BME280;25963;42.694;23.600;2022-08-19T12:23:42;94754.34;;;42.39;16.24
40245;BME280;25963;42.694;23.600;2022-08-19T12:26:10;94760.28;;;42.71;16.63
40245;BME280;25963;42.694;23.600;2022-08-19T12:28:37;94762.53;;;42.59;16.41
40245;BME280;25963;42.694;23.600;2022-08-19T12:31:03;94763.59;;;42.82;16.69
40245;BME280;25963;42.694;23.600;2022-08-19T12:33:29;94753.53;;;42.55;16.22
40245;BME280;25963;42.694;23.600;2022-08-19T12:36:00;94752.63;;;41.93;16.58
40245;BME280;25963;42.694;23.600;2022-08-19T12:38:26;94752.94;;;42.48;17.05
40245;BME280;25963;42.694;23.600;2022-08-19T12:40:52;94746.19;;;42.32;17.28
40245;BME280;25963;42.694;23.600;2022-08-19T12:43:17;94744.19;;;42.33;17.03
40245;BME280;25963;42.694;23.600;2022-08-19T12:45:45;94743.59;;;42.41;17.01
40245;BME280;25963;42.694;23.600;2022-08-19T12:48:11;94736.53;;;42.86;17.13
40245;BME280;25963;42.694;23.600;2022-08-19T12:50:42;94745.00;;;42.95;17.15
40245;BME280;25963;42.694;23.600;2022-08-19T12:53:11;94736.38;;;42.60;15.93
40245;BME280;25963;42.694;23.600;2022-08-19T12:55:36;94744.78;;;42.73;17.21
40245;BME280;25963;42.694;23.600;2022-08-19T12:58:02;94741.84;;;42.64;16.64
40245;BME280;25963;42.694;23.600;2022-08-19T13:00:28;94741.41;;;41.24;17.38
40245;BME280;25963;42.694;23.600;2022-08-19T13:02:54;94746.03;;;42.39;16.96
40245;BME280;25963;42.694;23.600;2022-08-19T13:05:22;94744.00;;;42.24;17.05
40245;BME280;25963;42.694;23.600;2022-08-19T13:07:49;94743.47;;;42.61;17.17